createdAt,value
2022-08-01T00:10:47.757Z,23.81
2022-08-01T00:13:15.594Z,23.91
2022-08-01T00:15:51.775Z,24.02
2022-08-01T00:18:22.993Z,23.78
2022-08-01T00:20:55.164Z,23.62
2022-08-01T00:23:23.700Z,23.60
2022-08-01T00:28:36.361Z,23.52
2022-08-01T00:31:14.520Z,23.56
2022-08-01T00:33:43.240Z,23.42
2022-08-01T00:50:02.049Z,23.16
2022-08-01T00:55:47.853Z,23.11
2022-08-01T00:58:20.399Z,23.22
2022-08-01T01:00:57.135Z,23.37
2022-08-01T01:03:57.968Z,23.36
2022-08-01T01:10:52.918Z,23.20
2022-08-01T01:13:24.654Z,23.09
2022-08-01T01:16:03.011Z,23.18
2022-08-01T01:25:42.243Z,23.07
2022-08-01T01:28:16.638Z,22.92
2022-08-01T01:30:54.024Z,22.96
2022-08-01T01:36:42.231Z,22.90
2022-08-01T01:42:16.623Z,22.76
2022-08-01T01:44:47.251Z,22.84
2022-08-01T01:50:21.774Z,22.57
2022-08-01T01:58:23.205Z,22.22
2022-08-01T02:06:41.351Z,22.15
2022-08-01T02:12:22.566Z,22.17
2022-08-01T02:15:07.820Z,22.25
2022-08-01T02:17:47.980Z,22.42
2022-08-01T02:20:19.973Z,22.64
2022-08-01T02:23:04.741Z,22.58
2022-08-01T02:29:07.429Z,22.64
2022-08-01T02:31:48.043Z,22.48
2022-08-01T02:34:25.632Z,22.55
2022-08-01T02:36:58.409Z,22.55
2022-08-01T02:42:15.020Z,22.40
2022-08-01T02:45:22.210Z,22.41
2022-08-01T02:47:59.422Z,22.35
2022-08-01T02:50:30.511Z,22.35
2022-08-01T02:53:43.967Z,22.26
2022-08-01T02:56:26.382Z,22.32
2022-08-01T03:03:07.243Z,22.57
2022-08-01T03:05:48.591Z,22.52
2022-08-01T03:15:07.892Z,22.42
2022-08-01T03:20:55.413Z,21.54
2022-08-01T03:24:10.355Z,21.40
2022-08-01T03:27:01.397Z,21.53
2022-08-01T03:33:37.297Z,21.42
2022-08-01T03:36:09.825Z,21.51
2022-08-01T03:38:53.691Z,21.56
2022-08-01T03:41:31.112Z,21.61
2022-08-01T03:45:13.482Z,21.72
2022-08-01T03:54:26.409Z,21.53
2022-08-01T03:57:08.391Z,21.56
2022-08-01T04:03:19.181Z,21.36
2022-08-01T04:06:12.980Z,21.26
2022-08-01T04:09:40.735Z,21.54
2022-08-01T04:18:27.542Z,21.36
2022-08-01T04:21:26.495Z,21.07
2022-08-01T04:27:50.052Z,20.98
2022-08-01T04:30:31.615Z,21.00
2022-08-01T04:33:33.636Z,21.10
2022-08-01T04:39:34.107Z,21.04
2022-08-01T04:42:25.213Z,21.17
2022-08-01T04:45:00.519Z,21.27
2022-08-01T04:47:29.834Z,21.20
2022-08-01T04:52:41.951Z,21.40
2022-08-01T04:55:12.433Z,21.45
2022-08-01T04:57:45.110Z,21.54
2022-08-01T05:00:14.942Z,21.40
2022-08-01T05:02:43.316Z,21.42
2022-08-01T05:05:15.453Z,21.65
2022-08-01T05:07:49.222Z,21.54
2022-08-01T05:13:36.527Z,21.70
2022-08-01T05:16:35.556Z,21.91
2022-08-01T05:22:06.517Z,22.16
2022-08-01T05:36:39.122Z,23.00
2022-08-01T05:46:41.666Z,23.40
2022-08-01T05:49:15.990Z,23.46
2022-08-01T05:55:05.752Z,23.69
2022-08-01T05:57:42.231Z,23.93
2022-08-01T06:00:38.593Z,24.03
2022-08-01T06:03:57.299Z,24.16
2022-08-01T06:06:38.836Z,24.20
2022-08-01T06:09:06.655Z,24.33
2022-08-01T06:11:34.241Z,24.52
2022-08-01T06:14:01.738Z,24.58
2022-08-01T06:16:33.177Z,24.85
2022-08-01T06:19:00.617Z,25.09
2022-08-01T06:21:27.991Z,25.58
2022-08-01T06:23:55.295Z,26.79
2022-08-01T06:26:22.642Z,28.50
2022-08-01T06:28:50.058Z,30.04
2022-08-01T06:31:17.472Z,31.41
2022-08-01T06:33:44.822Z,31.78
2022-08-01T06:36:12.163Z,32.76
2022-08-01T06:38:39.679Z,33.34
2022-08-01T06:41:07.066Z,33.15
2022-08-01T06:43:48.927Z,33.87
2022-08-01T06:46:24.144Z,34.93
2022-08-01T06:49:22.884Z,34.73
2022-08-01T06:52:11.192Z,36.03
2022-08-01T06:54:55.026Z,35.00
2022-08-01T06:57:45.711Z,35.46
2022-08-01T07:00:27.866Z,34.53
2022-08-01T07:03:01.045Z,35.06
2022-08-01T07:05:28.914Z,36.07
2022-08-01T07:07:56.258Z,35.17
2022-08-01T07:10:24.488Z,36.52
2022-08-01T07:12:51.983Z,36.12
2022-08-01T07:15:23.139Z,36.47
2022-08-01T07:17:50.577Z,36.77
2022-08-01T07:20:18.169Z,36.85
2022-08-01T07:22:47.614Z,36.55
2022-08-01T07:25:15.938Z,36.09
2022-08-01T07:27:43.378Z,37.76
2022-08-01T07:30:24.278Z,37.53
2022-08-01T07:32:53.757Z,37.46
2022-08-01T07:35:29.647Z,38.22
2022-08-01T07:38:02.876Z,40.14
2022-08-01T07:40:30.551Z,38.88
2022-08-01T07:42:58.216Z,36.96
2022-08-01T07:45:27.935Z,38.92
2022-08-01T07:47:56.122Z,38.27
2022-08-01T07:50:24.586Z,39.92
2022-08-01T07:52:55.069Z,40.54
2022-08-01T07:55:25.752Z,40.80
2022-08-01T07:57:59.073Z,39.66
2022-08-01T08:00:29.660Z,39.69
2022-08-01T08:03:00.582Z,39.81
2022-08-01T08:05:51.372Z,41.58
2022-08-01T08:08:20.537Z,40.81
2022-08-01T08:11:00.400Z,38.18
2022-08-01T08:13:33.999Z,40.41
2022-08-01T08:16:08.114Z,39.98
2022-08-01T08:21:38.533Z,40.63
2022-08-01T08:24:26.690Z,40.24
2022-08-01T08:26:58.996Z,37.34
2022-08-01T08:29:36.010Z,39.34
2022-08-01T08:32:17.077Z,40.70
2022-08-01T08:34:47.193Z,39.35
2022-08-01T08:37:18.452Z,39.73
2022-08-01T08:39:48.268Z,41.96
2022-08-01T08:42:15.696Z,41.78
2022-08-01T08:44:44.323Z,42.01
2022-08-01T08:47:17.152Z,43.67
2022-08-01T08:49:54.820Z,42.12
2022-08-01T08:52:25.142Z,39.85
2022-08-01T08:55:02.266Z,40.94
2022-08-01T08:57:29.721Z,41.29
2022-08-01T08:59:58.115Z,40.31
2022-08-01T09:02:25.844Z,42.80
2022-08-01T09:04:53.710Z,41.95
2022-08-01T09:07:21.588Z,41.16
2022-08-01T09:09:51.579Z,39.53
2022-08-01T09:12:19.786Z,38.94
2022-08-01T09:14:48.147Z,38.47
2022-08-01T09:17:15.966Z,39.68
2022-08-01T09:19:48.916Z,36.87
2022-08-01T09:22:23.753Z,39.41
2022-08-01T09:25:29.797Z,39.72
2022-08-01T09:39:58.463Z,40.40
2022-08-01T09:46:51.649Z,42.24
2022-08-01T09:50:16.968Z,39.77
2022-08-01T09:53:27.130Z,37.21
2022-08-01T09:56:10.527Z,36.21
2022-08-01T09:59:00.021Z,36.78
2022-08-01T10:01:45.032Z,38.64
2022-08-01T10:05:08.808Z,38.19
2022-08-01T10:07:43.851Z,35.93
2022-08-01T10:10:14.871Z,37.74
2022-08-01T10:12:45.728Z,37.89
2022-08-01T10:15:18.236Z,37.60
2022-08-01T10:17:54.417Z,36.18
2022-08-01T10:21:01.777Z,36.31
2022-08-01T10:27:39.452Z,37.12
2022-08-01T10:30:46.293Z,37.85
2022-08-01T10:34:19.939Z,36.43
2022-08-01T10:36:56.037Z,37.21
2022-08-01T10:44:11.158Z,37.36
2022-08-01T10:46:49.878Z,37.07
2022-08-01T10:49:39.758Z,36.78
2022-08-01T11:17:42.006Z,36.26
2022-08-01T11:29:20.420Z,34.86
2022-08-01T11:32:22.391Z,35.88
2022-08-01T11:35:05.538Z,35.52
2022-08-01T11:37:49.345Z,36.37
2022-08-01T11:40:29.337Z,36.11
2022-08-01T11:43:15.142Z,36.30
2022-08-01T11:45:52.212Z,36.49
2022-08-01T11:48:27.775Z,35.90
2022-08-01T11:50:56.352Z,35.95
2022-08-01T11:53:24.065Z,35.81
2022-08-01T11:56:04.287Z,35.03
2022-08-01T11:58:31.776Z,34.82
2022-08-01T12:00:59.534Z,35.62
2022-08-01T12:03:34.161Z,35.49
2022-08-01T12:09:48.316Z,35.78
2022-08-01T12:23:30.509Z,35.14
2022-08-01T12:33:25.170Z,34.25
2022-08-01T12:36:35.889Z,34.65
2022-08-01T12:40:03.938Z,34.83
2022-08-01T12:46:25.131Z,35.16
2022-08-01T12:49:32.064Z,35.15
2022-08-01T13:00:45.876Z,34.61
2022-08-01T13:14:48.951Z,35.28
2022-08-01T13:17:37.562Z,35.01
2022-08-01T13:20:05.469Z,34.91
2022-08-01T13:22:37.694Z,34.67
2022-08-01T13:25:22.098Z,34.86
2022-08-01T13:27:53.543Z,34.52
2022-08-01T13:30:26.894Z,34.42
2022-08-01T13:33:02.810Z,35.07
2022-08-01T13:35:30.433Z,34.60
2022-08-01T13:37:58.124Z,34.77
2022-08-01T13:40:29.846Z,34.87
2022-08-01T13:43:02.170Z,34.72
2022-08-01T13:45:29.886Z,34.95
2022-08-01T13:48:11.622Z,35.17
2022-08-01T13:50:53.343Z,34.85
2022-08-01T13:53:28.432Z,34.86
2022-08-01T13:55:56.278Z,34.98
2022-08-01T13:58:24.324Z,34.94
2022-08-01T14:00:55.128Z,34.73
2022-08-01T14:03:33.786Z,34.79
2022-08-01T14:06:01.937Z,34.95
2022-08-01T14:08:37.244Z,34.85
2022-08-01T14:11:07.517Z,34.83
2022-08-01T14:13:36.927Z,34.96
2022-08-01T14:16:11.644Z,34.95
2022-08-01T14:18:47.590Z,35.03
2022-08-01T14:21:16.160Z,34.95
2022-08-01T14:23:44.173Z,34.68
2022-08-01T14:26:21.082Z,34.74
2022-08-01T14:28:58.916Z,34.73
2022-08-01T14:31:35.922Z,34.36
2022-08-01T14:34:05.846Z,34.62
2022-08-01T14:36:39.324Z,34.69
2022-08-01T14:39:14.924Z,34.86
2022-08-01T14:42:23.429Z,34.72
2022-08-01T14:44:51.089Z,34.72
2022-08-01T14:47:22.166Z,34.88
2022-08-01T14:49:52.417Z,34.81
2022-08-01T14:52:25.509Z,34.85
2022-08-01T14:54:53.061Z,34.97
2022-08-01T14:57:22.911Z,34.82
2022-08-01T14:59:52.647Z,34.62
2022-08-01T15:02:20.335Z,34.68
2022-08-01T15:04:50.649Z,34.80
2022-08-01T15:07:18.425Z,34.35
2022-08-01T15:12:50.262Z,34.60
2022-08-01T15:19:06.369Z,34.54
2022-08-01T15:21:41.616Z,34.48
2022-08-01T15:27:14.954Z,34.38
2022-08-01T15:29:44.680Z,34.53
2022-08-01T15:32:13.664Z,34.50
2022-08-01T15:34:43.707Z,34.31
2022-08-01T15:37:13.197Z,34.24
2022-08-01T15:39:56.721Z,34.43
2022-08-01T15:42:27.033Z,34.29
2022-08-01T15:44:57.706Z,34.35
2022-08-01T15:52:21.362Z,34.24
2022-08-01T15:58:47.315Z,34.08
2022-08-01T16:04:55.390Z,34.33
2022-08-01T17:01:58.863Z,33.39
2022-08-01T17:04:16.700Z,33.46
2022-08-01T17:06:51.590Z,33.42
2022-08-01T17:09:59.709Z,33.27
2022-08-01T17:12:38.367Z,33.07
2022-08-01T17:15:18.390Z,32.98
2022-08-01T18:16:19.501Z,30.78
2022-08-01T18:18:57.089Z,30.71
2022-08-01T18:21:44.017Z,30.49
2022-08-01T18:48:48.445Z,29.53
2022-08-01T18:51:16.654Z,29.50
2022-08-01T18:53:44.091Z,29.18
2022-08-01T18:56:14.466Z,29.10
2022-08-01T18:58:50.746Z,28.54
2022-08-01T19:01:24.817Z,29.63
2022-08-01T19:03:54.973Z,29.90
2022-08-01T19:06:23.201Z,30.05
2022-08-01T19:09:02.464Z,29.87
2022-08-01T19:11:33.127Z,29.87
2022-08-01T19:14:06.843Z,29.85
2022-08-01T19:16:34.337Z,29.78
2022-08-01T19:19:06.878Z,29.75
2022-08-01T19:21:34.692Z,29.72
2022-08-01T19:24:17.356Z,29.65
2022-08-01T19:26:57.060Z,29.54
2022-08-01T19:29:35.387Z,29.33
2022-08-01T19:32:14.000Z,29.13
2022-08-01T19:35:01.143Z,29.15
2022-08-01T19:37:47.189Z,29.37
2022-08-01T19:50:32.636Z,28.67
2022-08-01T19:54:02.437Z,28.53
2022-08-01T20:10:09.197Z,28.39
2022-08-01T20:39:22.968Z,27.99
2022-08-01T20:42:01.556Z,28.01
2022-08-01T20:44:36.127Z,28.00
2022-08-01T20:47:17.690Z,28.04
2022-08-01T20:50:50.681Z,28.06
2022-08-01T20:53:10.513Z,28.02
2022-08-01T20:58:58.808Z,28.12
2022-08-01T21:01:55.315Z,28.12
2022-08-01T21:05:12.150Z,28.12
2022-08-01T21:20:42.554Z,27.59
2022-08-01T21:23:48.974Z,27.56
2022-08-01T21:38:29.002Z,27.66
2022-08-01T21:40:58.585Z,27.71
2022-08-01T21:43:26.032Z,27.67
2022-08-01T21:45:58.552Z,27.75
2022-08-01T21:48:30.182Z,27.74
2022-08-01T21:51:20.723Z,27.77
2022-08-01T21:54:04.069Z,27.74
2022-08-01T21:57:12.406Z,27.67
2022-08-01T21:59:51.557Z,27.65
2022-08-01T22:02:27.138Z,27.68
2022-08-01T22:05:05.128Z,27.69
2022-08-01T22:07:46.992Z,27.74
2022-08-01T22:10:19.816Z,27.67
2022-08-01T22:12:49.105Z,27.65
2022-08-01T22:15:24.068Z,27.55
2022-08-01T22:17:54.725Z,27.47
2022-08-01T22:20:49.549Z,27.39
2022-08-01T22:23:17.966Z,27.41
2022-08-01T22:25:48.945Z,27.43
2022-08-01T22:28:19.691Z,27.44
2022-08-01T22:31:20.518Z,27.51
2022-08-01T22:33:59.630Z,27.46
2022-08-01T22:36:33.914Z,27.39
2022-08-01T22:39:27.973Z,27.40
2022-08-01T22:42:01.717Z,27.46
2022-08-01T22:44:34.889Z,27.61
2022-08-01T22:47:11.442Z,27.55
2022-08-01T22:49:56.276Z,27.42
2022-08-01T22:52:27.509Z,27.40
2022-08-01T22:55:00.671Z,27.45
2022-08-01T22:57:37.866Z,27.32
2022-08-01T23:00:07.130Z,27.34
2022-08-01T23:02:45.868Z,27.27
2022-08-01T23:05:14.980Z,27.29
2022-08-01T23:07:52.183Z,27.20
2022-08-01T23:10:21.867Z,27.34
2022-08-01T23:12:53.823Z,27.35
2022-08-01T23:15:23.814Z,27.40
2022-08-01T23:17:51.444Z,27.40
2022-08-01T23:20:19.883Z,27.06
2022-08-01T23:22:48.000Z,27.05
2022-08-01T23:25:17.298Z,27.06
2022-08-01T23:27:55.706Z,27.08
2022-08-01T23:30:34.905Z,27.06
2022-08-01T23:33:02.351Z,27.18
2022-08-01T23:35:30.238Z,27.17
2022-08-01T23:38:02.518Z,27.11
2022-08-01T23:40:33.165Z,26.99
2022-08-01T23:43:01.952Z,27.02
2022-08-01T23:46:00.763Z,26.97
2022-08-01T23:48:17.524Z,27.13
2022-08-01T23:50:45.014Z,27.01
2022-08-01T23:53:13.111Z,26.78
2022-08-01T23:55:40.707Z,26.89
2022-08-01T23:58:12.702Z,26.90
